KSLN

Salina Regional Airport

Salina, Kansas, USA
METAR KSLN 170353Z 21005KT 10SM CLR 08/06 A3030 RMK AO2 SLP262 T00780056
Observed Flight Rules
Oct-17 @ 03:53 UTC (13 minutes ago) Visual Flight Rules
Wind Visibility Clouds
210° at 5 knots 10 miles
  • Clear skies
Temperatures Readings
Current 8°C / 46°F
Dewpoint 6°C / 43°F
Humidity 87%
Altimeter 30.3" Hg
Pressure 1026.2 hPa
Elevation 385
METAR KSLN 170353Z 21005KT 10SM CLR 08/06 A3030 RMK AO2 SLP262 T00780056
Observed Flight Rules
Oct-17 @ 03:53 UTC
(13 minutes ago)
VFR
Wind Visibility
210° at 5 knots 10 miles
Clouds
  • Clear skies
Temperature Dewpoint
8°C / 46°F 6°C / 43°F
Humidity Altimeter Pressure
87% 30.3" Hg 1026.2 hPa